Meadville, PA (16335)

6:29 PM EST on December 10, 2016 (GMT -0500)
Gilmore St | | Change Station
Active Advisory: Lake Effect Snow Warning Active Notice: Public Information Statement

Elev 1365 ft 41.65 °N, 80.14 °W | Updated 16 seconds ago

Overcast
Overcast
21.2 °F
Feels Like 21 °F
N
2.9
Wind Variable Wind from SW
Gusts 3.8 mph

Today
High -- | Low -- °F
--% Chance of Precip.
Yesterday
High -- | Low -- °F
Precip. -- in
Pressure 30.45 in
Visibility 10.0 miles
Clouds Overcast 4800 ft
Windchill 21 °F
Dew Point 8 °F
Humidity 55%
Rainfall 0.00 in
Snow Depth Not available.
7:36 AM 4:50 PM
Waxing Gibbous, 87% visible
METAR KGKJ 102253Z AUTO 23007KT 10SM OVC048 M06/M11 A3039 RMK AO2 SLP312 T10561111
Pressure 30.45 in
Visibility 10.0 miles
Clouds Overcast 4800 ft
Windchill 21 °F
Dew Point 8 °F
Humidity 55%
Rainfall 0.00 in
Snow Depth Not available.
7:36 AM 4:50 PM
Waxing Gibbous, 87% visible
METAR KGKJ 102253Z AUTO 23007KT 10SM OVC048 M06/M11 A3039 RMK AO2 SLP312 T10561111

10-Day Weather Forecast

Almanac

Astronomy

Dec. 10, 2016 Rise Set
Actual Time
Civil Twilight
Nautical Twilight
Astronomical Twilight
Moon
Length of Visible Light
Length of Day
Tomorrow will be .
, % of the Moon is Illuminated

Today's Extremes

State Highs State Lows

Community

WunderPhotos

Upload Photos

1,956,671 photos uploaded!

WunderBlog® & News

Nearby

Air Quality

  Air Quality AQ Index Pollutant
Not available.

Snow Depth

Station Depth Elevation

Earthquake Activity

City Distance Mag. Time & Date
Minimum magnitude displayed is 2.5.

Coastal Water Temperatures

Place Temperature

Stations

Nearby Weather Stations

Station Location Temp. Windchill Dew Point Humidity Wind Precip. Elev Updated Type
                   

Watches & Warnings

Lake Effect Snow Warning
Issued: 3:11 PM EST Dec. 10, 2016 – National Weather Service

... Lake effect snow warning remains in effect until 7 PM EST this
evening...

* accumulations... an additional accumulation of 1 to 3 inches of
snow is likely where the lake effect snow showers persist.

* Timing... the snow will be tapering off this evening.

* Impacts... poor visibilities will continue in the heavier snow
showers. Deep snow will make for very difficult driving
conditions.

* Winds... southwest 5 to 10 mph.

* Temperatures... in the lower and mid 20s.

Precautionary/preparedness actions...

A lake effect snow warning is issued when heavy lake effect snow
is expected or occurring. Visibilities can vary greatly and can
drop to near zero in the heavier lake effect snow bands. If you
will be traveling in the warned area be prepared for rapid
changes in weather... visibility and Road conditions. Local travel
restrictions may be in effect.